Time;durP1;ratioP1;P1;durP2;ratioP2;P2;SDS_P1;SDS_P2;PMS_P1;PMS_P2;Temp;Humidity;BMP_temperature;BMP_pressure;BME280_temperature;BME280_humidity;BME280_pressure;Samples;Min_cycle;Max_cycle;Signal;HPM_P1;HPM_P2
2023/07/15 00:01:08;;;;;;;7.20;3.00;;;;;;;18.13;66.30;100207.81;108987;1257;71752;-68
2023/07/15 00:03:36;;;;;;;6.00;2.80;;;;;;;18.11;66.44;100205.23;108736;1257;72669;-68
2023/07/15 00:06:05;;;;;;;8.20;2.60;;;;;;;18.09;66.46;100202.89;108063;1255;60570;-67
2023/07/15 00:08:33;;;;;;;8.60;2.80;;;;;;;18.07;66.55;100202.26;108043;1255;61262;-68
2023/07/15 00:11:01;;;;;;;7.50;2.90;;;;;;;18.04;66.60;100195.77;107227;1255;73842;-68
2023/07/15 00:13:28;;;;;;;5.20;2.50;;;;;;;17.99;66.72;100190.39;106915;1257;71327;-70
2023/07/15 00:15:57;;;;;;;5.70;2.80;;;;;;;17.96;66.86;100187.64;107137;1257;72473;-69
2023/07/15 00:18:25;;;;;;;6.10;3.30;;;;;;;17.90;66.95;100185.38;107290;1256;61974;-70
2023/07/15 00:20:52;;;;;;;7.40;2.80;;;;;;;17.89;67.15;100186.75;107311;1257;61142;-69
2023/07/15 00:23:22;;;;;;;5.40;2.90;;;;;;;17.85;67.11;100184.19;106930;1257;74810;-69
2023/07/15 00:25:53;;;;;;;7.60;2.80;;;;;;;17.81;67.27;100185.80;107248;1257;69987;-69
2023/07/15 00:28:22;;;;;;;8.40;2.70;;;;;;;17.78;67.30;100181.93;108806;1256;71496;-70
2023/07/15 00:30:52;;;;;;;6.60;3.10;;;;;;;17.76;67.34;100177.10;108747;1256;62133;-69
2023/07/15 00:33:20;;;;;;;6.60;3.10;;;;;;;17.75;67.54;100172.80;106655;1257;60370;-68
2023/07/15 00:35:47;;;;;;;6.10;3.00;;;;;;;17.75;67.71;100171.06;106981;1257;74702;-69
2023/07/15 00:38:14;;;;;;;6.40;2.80;;;;;;;17.75;67.82;100165.60;107234;1257;71213;-70
2023/07/15 00:40:46;;;;;;;7.20;3.60;;;;;;;17.75;67.87;100164.52;106855;1257;73328;-70
2023/07/15 00:43:50;;;;;;;6.80;3.10;;;;;;;17.75;67.93;100156.80;106706;1257;62131;-69
2023/07/15 00:46:23;;;;;;;6.20;2.70;;;;;;;17.74;67.88;100156.45;106908;1257;61176;-68
2023/07/15 00:49:21;;;;;;;8.30;3.30;;;;;;;17.71;68.06;100152.80;106870;1260;72977;-69
2023/07/15 00:52:13;;;;;;;5.50;2.60;;;;;;;17.67;68.13;100154.27;107033;1256;70197;-68
2023/07/15 00:54:46;;;;;;;5.70;2.90;;;;;;;17.65;68.28;100152.71;106997;1257;72634;-68
2023/07/15 00:57:17;;;;;;;6.00;3.30;;;;;;;17.63;68.40;100148.05;107183;1257;61714;-69
2023/07/15 00:59:46;;;;;;;4.70;2.90;;;;;;;17.60;68.56;100147.89;106767;1257;61247;-68
2023/07/15 01:02:15;;;;;;;7.30;3.20;;;;;;;17.58;68.66;100153.63;107072;1257;74733;-68
2023/07/15 01:04:44;;;;;;;7.40;3.10;;;;;;;17.55;68.67;100149.55;107031;1255;71180;-69
2023/07/15 01:07:11;;;;;;;7.50;3.00;;;;;;;17.52;68.78;100152.60;106934;1257;71803;-69
2023/07/15 01:09:39;;;;;;;8.50;3.60;;;;;;;17.49;68.87;100148.04;106872;1256;63051;-68
2023/07/15 01:12:06;;;;;;;8.00;3.20;;;;;;;17.47;68.95;100148.66;107087;1257;61865;-68
2023/07/15 01:14:33;;;;;;;6.50;3.20;;;;;;;17.44;68.93;100143.72;107074;1257;73459;-69
2023/07/15 01:17:00;;;;;;;9.30;3.10;;;;;;;17.41;69.09;100145.00;107467;1257;69805;-69
2023/07/15 01:19:27;;;;;;;7.30;2.90;;;;;;;17.38;69.32;100142.67;106968;1256;72763;-68
2023/07/15 01:21:54;;;;;;;11.20;2.90;;;;;;;17.34;69.38;100138.36;107638;1257;61247;-69
2023/07/15 01:24:22;;;;;;;7.00;2.80;;;;;;;17.31;69.51;100137.81;106484;1257;61846;-69
2023/07/15 01:26:57;;;;;;;7.50;3.50;;;;;;;17.28;69.66;100131.59;107180;1257;73701;-70
2023/07/15 01:29:24;;;;;;;7.80;3.10;;;;;;;17.26;69.67;100130.30;106690;1261;71111;-69
2023/07/15 01:35:46;;;;;;;6.50;2.70;;;;;;;17.24;69.85;100123.66;106644;1256;61301;-69
2023/07/15 01:38:13;;;;;;;6.80;3.00;;;;;;;17.24;69.74;100120.70;105779;1257;295734;-68
2023/07/15 01:40:40;;;;;;;6.00;2.60;;;;;;;17.24;69.74;100119.27;106227;1259;74767;-68
2023/07/15 01:43:06;;;;;;;5.60;2.70;;;;;;;17.24;69.70;100119.79;106149;1257;71201;-70
2023/07/15 01:45:33;;;;;;;6.40;2.60;;;;;;;17.24;69.79;100115.29;106185;1258;71524;-70
2023/07/15 01:48:00;;;;;;;5.60;2.80;;;;;;;17.25;69.76;100112.09;106271;1257;61685;-69
2023/07/15 01:50:26;;;;;;;6.60;2.60;;;;;;;17.26;69.75;100112.44;106132;1257;61177;-69
2023/07/15 01:52:54;;;;;;;5.60;2.80;;;;;;;17.27;69.66;100109.79;106329;1256;73883;-69
2023/07/15 01:55:24;;;;;;;8.40;2.60;;;;;;;17.29;69.55;100103.39;106081;1257;70357;-70
2023/07/15 01:57:50;;;;;;;7.60;2.90;;;;;;;17.31;69.47;100100.23;106235;1257;71468;-70
2023/07/15 02:00:17;;;;;;;6.30;2.70;;;;;;;17.33;69.41;100099.04;105940;1257;62515;-70
2023/07/15 02:02:44;;;;;;;5.10;2.60;;;;;;;17.34;69.22;100097.45;106297;1256;61155;-70
2023/07/15 02:05:11;;;;;;;8.80;2.50;;;;;;;17.36;69.08;100095.72;105934;1257;73498;-70
2023/07/15 02:07:38;;;;;;;6.90;2.80;;;;;;;17.38;69.24;100093.01;106090;1256;70007;-69
2023/07/15 02:10:05;;;;;;;6.70;2.50;;;;;;;17.39;69.11;100095.14;106704;1256;71517;-70
2023/07/15 02:12:31;;;;;;;5.80;2.40;;;;;;;17.41;68.99;100091.48;106118;1257;62418;-70
2023/07/15 02:14:58;;;;;;;5.80;2.60;;;;;;;17.43;68.97;100086.98;106065;1257;61289;-69
2023/07/15 02:17:25;;;;;;;7.00;2.50;;;;;;;17.46;68.90;100081.08;106338;1256;73017;-69
2023/07/15 02:19:52;;;;;;;9.50;2.70;;;;;;;17.46;68.73;100076.80;106216;1257;69746;-70
2023/07/15 02:22:19;;;;;;;4.70;2.90;;;;;;;17.46;68.63;100076.80;106172;1262;71667;-70
2023/07/15 02:24:47;;;;;;;6.30;2.70;;;;;;;17.46;68.57;100072.60;106318;1257;61708;-72
2023/07/15 02:27:16;;;;;;;7.40;2.80;;;;;;;17.44;68.56;100068.08;106431;1256;61232;-69
2023/07/15 02:29:44;;;;;;;7.50;2.90;;;;;;;17.42;68.52;100066.62;106213;1256;73286;-69
2023/07/15 02:32:15;;;;;;;6.10;2.60;;;;;;;17.39;68.55;100060.39;106278;1260;71194;-68
2023/07/15 02:34:42;;;;;;;6.50;2.60;;;;;;;17.37;68.60;100058.53;106281;1256;71178;-70
2023/07/15 02:37:09;;;;;;;6.80;2.70;;;;;;;17.35;68.60;100053.27;106224;1256;61721;-71
2023/07/15 02:39:35;;;;;;;8.20;2.60;;;;;;;17.32;68.66;100050.93;105899;1256;61291;-69
2023/07/15 02:42:02;;;;;;;7.30;2.50;;;;;;;17.30;68.76;100044.86;106180;1256;74603;-69
2023/07/15 02:44:29;;;;;;;6.10;2.60;;;;;;;17.29;68.62;100045.00;106196;1256;71315;-69
2023/07/15 02:46:56;;;;;;;5.00;2.70;;;;;;;17.30;68.56;100042.08;106297;1260;61260;-69
2023/07/15 02:49:22;;;;;;;7.10;3.00;;;;;;;17.29;68.47;100039.85;106524;1256;61853;-68
2023/07/15 02:51:49;;;;;;;8.70;2.50;;;;;;;17.27;68.43;100038.48;106181;1260;61304;-68
2023/07/15 02:54:16;;;;;;;5.50;2.70;;;;;;;17.27;68.50;100040.02;106324;1256;74679;-68
2023/07/15 02:56:43;;;;;;;5.60;2.40;;;;;;;17.24;68.42;100038.98;106347;1257;70268;-70
2023/07/15 02:59:09;;;;;;;5.90;2.70;;;;;;;17.21;68.50;100036.73;106324;1261;61260;-74
2023/07/15 03:01:36;;;;;;;5.90;2.30;;;;;;;17.18;68.61;100036.84;108102;1256;60366;-68
2023/07/15 03:04:04;;;;;;;4.30;2.30;;;;;;;17.16;68.63;100030.23;108973;1256;60058;-69
2023/07/15 03:06:32;;;;;;;5.10;2.50;;;;;;;17.13;68.62;100030.45;108013;1256;74758;-68
2023/07/15 03:08:59;;;;;;;4.40;2.40;;;;;;;17.11;68.67;100028.01;106116;1257;70523;-69
2023/07/15 03:11:26;;;;;;;5.50;2.50;;;;;;;17.10;68.58;100024.40;108321;1257;73036;-68
2023/07/15 03:13:52;;;;;;;6.20;2.30;;;;;;;17.11;68.74;100026.48;106034;1262;62158;-68
2023/07/15 03:16:22;;;;;;;6.80;2.70;;;;;;;17.11;68.65;100023.23;106043;1261;61260;-68
2023/07/15 03:18:49;;;;;;;4.90;2.40;;;;;;;17.11;68.64;100026.48;106244;1256;74720;-69
2023/07/15 03:21:15;;;;;;;4.90;2.20;;;;;;;17.11;68.46;100024.34;105892;1256;70549;-69
2023/07/15 03:23:42;;;;;;;4.50;2.20;;;;;;;17.11;68.40;100025.81;106166;1257;72754;-69
2023/07/15 03:26:09;;;;;;;5.50;2.40;;;;;;;17.12;68.35;100024.27;105769;1261;61465;-69
2023/07/15 03:28:36;;;;;;;5.00;2.40;;;;;;;17.13;68.41;100024.40;105843;1257;60844;-69
2023/07/15 03:31:04;;;;;;;4.00;2.20;;;;;;;17.15;68.35;100023.98;106124;1256;72380;-69
2023/07/15 03:33:31;;;;;;;5.00;2.30;;;;;;;17.15;68.27;100024.42;106039;1260;70089;-70
2023/07/15 03:36:01;;;;;;;6.80;2.50;;;;;;;17.17;68.30;100023.13;106015;1256;73414;-70
2023/07/15 03:38:27;;;;;;;5.30;2.60;;;;;;;17.18;68.29;100026.16;106019;1255;62021;-69
2023/07/15 03:40:54;;;;;;;5.60;2.30;;;;;;;17.20;68.17;100025.41;106464;1256;61268;-70
2023/07/15 03:43:21;;;;;;;4.70;2.20;;;;;;;17.23;68.10;100027.51;106223;1256;74753;-69
2023/07/15 03:45:48;;;;;;;3.70;2.30;;;;;;;17.26;67.97;100024.98;106265;1260;70533;-70
2023/07/15 03:48:14;;;;;;;5.30;2.20;;;;;;;17.30;67.84;100021.96;105851;1256;70867;-69
2023/07/15 03:50:44;;;;;;;3.40;2.10;;;;;;;17.35;67.69;100020.02;105987;1256;62874;-70
2023/07/15 03:53:12;;;;;;;6.50;2.40;;;;;;;17.40;67.63;100020.58;106105;1256;61291;-69
2023/07/15 03:55:39;;;;;;;6.70;2.20;;;;;;;17.45;67.55;100016.77;105967;1257;74255;-69
2023/07/15 03:58:05;;;;;;;5.50;2.40;;;;;;;17.51;67.10;100018.17;106362;1257;68818;-69
2023/07/15 04:00:35;;;;;;;4.00;2.10;;;;;;;17.58;67.07;100021.15;106019;1256;71272;-70
2023/07/15 04:03:06;;;;;;;4.60;2.20;;;;;;;17.64;66.92;100024.39;106116;1257;61989;-69
2023/07/15 04:05:33;;;;;;;5.50;2.40;;;;;;;17.73;66.67;100027.08;105990;1256;61250;-70
2023/07/15 04:08:00;;;;;;;4.60;1.90;;;;;;;17.81;66.46;100026.77;105847;1256;61131;-69
2023/07/15 04:10:26;;;;;;;4.00;2.10;;;;;;;17.89;66.19;100023.08;106008;1257;70046;-70
2023/07/15 04:12:53;;;;;;;4.30;2.10;;;;;;;17.98;65.93;100024.40;106327;1256;71568;-70
2023/07/15 04:15:20;;;;;;;3.10;1.90;;;;;;;18.07;65.61;100024.00;105990;1256;61331;-70
2023/07/15 04:17:47;;;;;;;5.30;2.20;;;;;;;18.16;65.35;100024.86;106203;1257;60501;-69
2023/07/15 04:20:17;;;;;;;7.60;2.10;;;;;;;18.26;65.13;100024.02;106141;1257;72949;-69
2023/07/15 04:22:44;;;;;;;4.10;2.20;;;;;;;18.37;64.81;100022.09;106270;1256;70066;-70
2023/07/15 04:25:11;;;;;;;5.00;2.00;;;;;;;18.47;64.48;100020.81;106380;1260;71134;-69
2023/07/15 04:27:39;;;;;;;3.50;2.00;;;;;;;18.58;64.36;100017.83;106005;1258;61365;-70
2023/07/15 04:30:07;;;;;;;4.50;2.00;;;;;;;18.69;63.99;100017.89;106098;1256;61253;-68
2023/07/15 04:32:34;;;;;;;4.00;1.90;;;;;;;18.80;63.73;100018.39;106370;1256;74632;-69
2023/07/15 04:35:02;;;;;;;4.20;1.80;;;;;;;18.91;63.36;100021.26;106534;1257;71290;-69
2023/07/15 04:37:30;;;;;;;4.10;2.00;;;;;;;19.02;63.26;100018.41;105992;1258;70679;-69
2023/07/15 04:39:56;;;;;;;4.50;1.70;;;;;;;19.11;62.84;100015.30;105864;1256;62450;-70
2023/07/15 04:42:23;;;;;;;4.10;2.10;;;;;;;19.19;62.56;100013.00;105965;1257;61378;-69
2023/07/15 04:44:49;;;;;;;3.40;1.90;;;;;;;19.25;62.40;100017.30;106281;1256;73513;-69
2023/07/15 04:47:16;;;;;;;4.40;2.10;;;;;;;19.29;61.99;100017.95;105928;1260;61368;-69
2023/07/15 04:49:43;;;;;;;5.30;1.90;;;;;;;19.33;61.80;100015.80;106407;1258;71695;-70
2023/07/15 04:52:09;;;;;;;3.70;2.20;;;;;;;19.37;61.65;100021.58;106141;1257;61997;-70
2023/07/15 04:54:36;;;;;;;5.00;1.80;;;;;;;19.41;61.56;100019.23;106464;1256;61266;-68
2023/07/15 04:57:03;;;;;;;3.60;1.90;;;;;;;19.45;61.53;100020.89;106247;1256;76808;-69
2023/07/15 04:59:30;;;;;;;4.50;2.00;;;;;;;19.48;61.36;100016.21;106101;1256;70324;-70
2023/07/15 05:01:57;;;;;;;5.10;2.40;;;;;;;19.56;61.42;100019.63;106295;1256;61753;-70
2023/07/15 05:04:23;;;;;;;4.30;1.80;;;;;;;19.65;61.36;100019.16;106032;1259;61191;-71
2023/07/15 05:06:50;;;;;;;3.80;1.70;;;;;;;19.75;61.35;100022.53;106594;1257;61157;-71
2023/07/15 05:09:17;;;;;;;5.70;1.80;;;;;;;19.87;61.17;100019.10;106017;1256;73809;-68
2023/07/15 05:11:44;;;;;;;5.40;1.80;;;;;;;20.02;60.89;100019.84;106119;1259;71440;-70
2023/07/15 05:14:11;;;;;;;3.30;1.90;;;;;;;20.19;60.72;100019.59;106011;1259;73632;-69
2023/07/15 05:16:42;;;;;;;4.10;1.80;;;;;;;20.40;60.33;100022.19;106060;1257;61320;-71
2023/07/15 05:19:09;;;;;;;4.50;1.80;;;;;;;20.61;59.66;100025.25;105840;1256;62206;-70
2023/07/15 05:21:36;;;;;;;4.00;1.70;;;;;;;20.80;59.10;100026.52;105910;1260;74664;-68
2023/07/15 05:24:03;;;;;;;4.20;1.80;;;;;;;20.97;58.31;100028.90;106350;1259;68650;-69
2023/07/15 05:26:30;;;;;;;3.70;1.70;;;;;;;21.13;57.28;100025.70;106030;1256;70949;-69
2023/07/15 05:28:57;;;;;;;3.70;1.70;;;;;;;21.28;57.13;100026.54;106371;1257;61596;-69
2023/07/15 05:31:24;;;;;;;4.30;1.80;;;;;;;21.44;56.84;100028.35;106208;1256;61332;-69
2023/07/15 05:33:50;;;;;;;3.60;1.90;;;;;;;21.60;56.52;100028.48;106297;1256;74235;-69
2023/07/15 05:36:17;;;;;;;3.40;1.60;;;;;;;21.77;55.98;100023.24;106517;1260;69693;-68
2023/07/15 05:38:43;;;;;;;5.40;1.60;;;;;;;21.96;55.38;100028.20;106481;1259;71643;-70
2023/07/15 05:41:14;;;;;;;3.40;1.60;;;;;;;22.14;54.64;100023.80;106555;1256;61299;-68
2023/07/15 05:43:41;;;;;;;4.00;1.60;;;;;;;22.33;53.85;100026.67;106577;1257;61297;-69
2023/07/15 05:46:07;;;;;;;6.20;2.10;;;;;;;22.51;52.89;100025.60;106479;1256;73499;-69
2023/07/15 05:48:37;;;;;;;4.00;1.60;;;;;;;22.68;51.95;100024.77;106290;1259;71023;-70
2023/07/15 05:51:03;;;;;;;3.50;1.60;;;;;;;22.85;51.79;100021.99;106100;1256;71674;-69
2023/07/15 05:53:31;;;;;;;3.20;1.70;;;;;;;23.02;51.56;100028.08;106294;1256;62470;-69
2023/07/15 05:55:57;;;;;;;4.00;1.60;;;;;;;23.17;50.73;100028.48;106389;1256;61731;-68
2023/07/15 05:58:26;;;;;;;3.80;1.80;;;;;;;23.30;50.37;100027.38;106390;1256;73522;-69
2023/07/15 06:00:53;;;;;;;2.90;1.50;;;;;;;23.38;50.48;100031.95;107109;1256;71180;-70
2023/07/15 06:03:19;;;;;;;4.00;1.90;;;;;;;23.46;50.19;100032.13;106274;1256;72411;-68
2023/07/15 06:05:46;;;;;;;3.40;1.60;;;;;;;23.52;50.06;100031.57;106351;1256;61240;-70
2023/07/15 06:08:13;;;;;;;3.90;1.60;;;;;;;23.55;50.09;100034.91;106192;1255;61248;-68
2023/07/15 06:10:42;;;;;;;3.70;1.50;;;;;;;23.60;49.84;100037.45;106184;1256;61365;-72
2023/07/15 06:13:10;;;;;;;3.80;1.70;;;;;;;23.62;49.71;100039.22;106037;1262;69677;-70
2023/07/15 06:15:38;;;;;;;3.50;1.40;;;;;;;23.65;49.53;100041.95;106094;1256;70731;-70
2023/07/15 06:18:05;;;;;;;3.80;1.50;;;;;;;23.70;49.80;100033.77;106060;1257;61369;-69
2023/07/15 06:20:36;;;;;;;3.30;1.50;;;;;;;23.77;49.69;100029.63;105835;1256;61369;-70
2023/07/15 06:23:03;;;;;;;3.70;1.60;;;;;;;23.85;49.88;100024.98;105969;1256;73437;-70
2023/07/15 06:25:33;;;;;;;3.20;1.60;;;;;;;23.92;49.21;100021.11;105798;1256;71948;-70
2023/07/15 06:28:00;;;;;;;7.40;1.80;;;;;;;24.01;49.18;100018.66;105859;1257;72723;-70
2023/07/15 06:30:26;;;;;;;3.10;1.70;;;;;;;24.11;49.10;100015.95;106059;1259;61397;-70
2023/07/15 06:32:54;;;;;;;4.80;1.60;;;;;;;24.20;48.79;100021.84;106185;1257;61302;-70
2023/07/15 06:35:21;;;;;;;3.40;1.60;;;;;;;24.31;48.96;100018.83;105834;1262;74520;-69
2023/07/15 06:37:48;;;;;;;6.10;1.50;;;;;;;24.43;48.53;100010.05;105912;1256;61429;-70
2023/07/15 06:40:16;;;;;;;3.40;1.70;;;;;;;24.56;48.42;100010.09;106151;1257;71634;-70
2023/07/15 06:42:46;;;;;;;4.60;1.40;;;;;;;24.69;47.46;100012.73;105857;1257;62041;-71
2023/07/15 06:45:13;;;;;;;3.60;1.30;;;;;;;24.81;47.05;100006.59;105754;1256;61184;-69
2023/07/15 06:47:40;;;;;;;2.90;1.50;;;;;;;24.92;46.21;100006.16;105770;1257;73085;-69
2023/07/15 06:50:07;;;;;;;4.40;1.50;;;;;;;25.01;45.89;100006.17;105700;1256;70897;-68
2023/07/15 06:52:34;;;;;;;4.10;1.50;;;;;;;25.12;46.12;100005.14;109053;1255;71642;-71
2023/07/15 06:55:01;;;;;;;5.10;2.00;;;;;;;25.23;45.71;100005.52;107866;1256;61300;-69
2023/07/15 06:57:28;;;;;;;3.80;1.70;;;;;;;25.35;45.66;100006.13;107231;1256;61158;-69
2023/07/15 06:59:55;;;;;;;3.50;1.60;;;;;;;25.46;45.39;100004.53;106945;1256;73048;-68
2023/07/15 07:02:21;;;;;;;3.20;1.40;;;;;;;25.56;45.08;100002.77;106453;1260;72574;-69
2023/07/15 07:04:48;;;;;;;3.20;1.60;;;;;;;25.71;45.12;100005.56;106012;1256;72069;-70
2023/07/15 07:07:15;;;;;;;3.70;1.50;;;;;;;25.81;44.18;100001.96;105845;1256;61358;-70
2023/07/15 07:09:42;;;;;;;3.00;1.40;;;;;;;25.91;43.97;100000.27;105761;1257;61369;-70
2023/07/15 07:12:08;;;;;;;3.00;1.50;;;;;;;25.99;43.65;100002.09;106270;1256;74510;-68
2023/07/15 07:14:35;;;;;;;4.20;1.60;;;;;;;26.08;43.87;99996.27;105934;1259;70111;-70
2023/07/15 07:17:02;;;;;;;4.00;1.30;;;;;;;26.20;43.80;99992.84;106759;1259;71815;-69
2023/07/15 07:19:29;;;;;;;3.30;1.50;;;;;;;26.30;43.82;99995.95;108994;1256;60788;-69
2023/07/15 07:21:55;;;;;;;5.20;1.50;;;;;;;26.40;43.59;99993.44;108614;1255;61171;-69
2023/07/15 07:24:23;;;;;;;2.50;1.40;;;;;;;26.47;42.67;99992.30;107502;1256;74582;-68
2023/07/15 07:26:51;;;;;;;6.50;1.70;;;;;;;26.48;42.35;99996.14;107331;1257;70829;-71
2023/07/15 07:29:17;;;;;;;5.10;1.60;;;;;;;26.54;42.84;99992.94;107260;1256;71466;-70
2023/07/15 07:31:45;;;;;;;3.70;1.40;;;;;;;26.65;43.22;99994.67;108985;1256;60043;-72
2023/07/15 07:34:11;;;;;;;3.20;1.50;;;;;;;26.72;42.32;99993.14;108816;1256;59851;-70
2023/07/15 07:36:38;;;;;;;2.20;1.30;;;;;;;26.80;42.43;99989.52;108666;1256;75791;-69
2023/07/15 07:39:05;;;;;;;2.50;1.20;;;;;;;26.87;42.06;99985.75;107631;1256;70412;-69
2023/07/15 07:41:31;;;;;;;4.00;1.60;;;;;;;26.99;42.20;99984.20;106146;1256;72766;-69
2023/07/15 07:43:58;;;;;;;2.50;1.20;;;;;;;27.14;42.21;99983.37;106240;1259;61285;-69
2023/07/15 07:46:25;;;;;;;2.90;1.60;;;;;;;27.25;41.61;99982.79;106249;1256;61151;-69
2023/07/15 07:48:51;;;;;;;3.70;1.50;;;;;;;27.33;41.20;99987.73;106220;1256;74391;-70
2023/07/15 07:51:18;;;;;;;3.80;1.40;;;;;;;27.40;41.20;99983.52;105852;1256;71269;-73
2023/07/15 07:53:45;;;;;;;3.80;1.40;;;;;;;27.48;40.62;99987.55;105898;1256;61366;-71
2023/07/15 07:56:14;;;;;;;3.00;1.30;;;;;;;27.53;40.73;99986.77;105845;1256;61300;-69
2023/07/15 07:58:41;;;;;;;4.20;1.70;;;;;;;27.64;40.94;99985.97;106524;1256;61388;-70
2023/07/15 08:01:08;;;;;;;2.20;1.30;;;;;;;27.76;40.19;99991.83;106243;1256;73463;-69
2023/07/15 08:03:34;;;;;;;4.30;1.60;;;;;;;27.80;39.82;99983.55;106248;1256;69443;-70
2023/07/15 08:06:01;;;;;;;5.00;1.80;;;;;;;27.88;39.94;99973.86;106197;1256;73017;-69
2023/07/15 08:08:27;;;;;;;3.30;1.40;;;;;;;27.98;39.47;99967.20;106310;1256;61408;-69
2023/07/15 08:10:54;;;;;;;2.80;1.40;;;;;;;28.04;39.15;99967.86;106158;1259;61301;-70
2023/07/15 08:13:22;;;;;;;3.40;1.30;;;;;;;28.14;39.78;99968.95;106321;1256;73686;-69
2023/07/15 08:15:49;;;;;;;2.60;1.30;;;;;;;28.26;39.20;99968.36;106041;1257;70297;-71
2023/07/15 08:18:16;;;;;;;3.00;1.40;;;;;;;28.37;39.36;99969.39;106286;1256;72711;-70
2023/07/15 08:20:43;;;;;;;2.90;1.40;;;;;;;28.47;39.06;99976.89;106245;1256;61391;-73
2023/07/15 08:23:10;;;;;;;3.80;1.60;;;;;;;28.54;38.34;99973.97;106256;1256;62499;-70
2023/07/15 08:25:38;;;;;;;3.40;1.40;;;;;;;28.58;38.16;99967.48;106710;1256;74689;-72
2023/07/15 08:28:04;;;;;;;3.80;1.40;;;;;;;28.67;38.84;99967.00;106183;1256;71251;-74
2023/07/15 08:30:36;;;;;;;3.60;1.40;;;;;;;28.83;38.94;99969.80;106374;1256;72864;-73
2023/07/15 08:33:04;;;;;;;3.40;1.40;;;;;;;28.91;37.57;99979.08;106263;1256;61445;-72
2023/07/15 08:35:32;;;;;;;2.60;1.20;;;;;;;28.91;37.73;99980.27;106529;1256;61184;-71
2023/07/15 08:37:58;;;;;;;5.70;1.40;;;;;;;28.93;37.75;99979.80;106815;1256;73839;-72
2023/07/15 08:40:26;;;;;;;2.70;1.30;;;;;;;28.93;37.96;99974.44;106458;1255;71648;-73
2023/07/15 08:42:53;;;;;;;2.80;1.40;;;;;;;29.02;37.94;99971.39;106049;1259;72736;-76
2023/07/15 08:45:22;;;;;;;2.30;1.40;;;;;;;29.10;37.62;99972.84;106103;1256;61276;-73
2023/07/15 08:47:50;;;;;;;3.30;1.30;;;;;;;29.17;37.85;99976.86;106208;1256;61267;-73
2023/07/15 08:50:18;;;;;;;2.90;1.20;;;;;;;29.27;37.74;99982.58;106360;1257;74259;-74
2023/07/15 08:52:45;;;;;;;2.70;1.20;;;;;;;29.33;37.44;99985.89;106366;1257;69750;-73
2023/07/15 08:55:13;;;;;;;3.80;1.30;;;;;;;29.35;37.23;99985.66;106639;1256;72474;-73
2023/07/15 08:57:40;;;;;;;2.70;1.40;;;;;;;29.38;37.35;99979.02;106625;1256;61387;-74
2023/07/15 09:00:12;;;;;;;5.40;1.20;;;;;;;29.47;36.92;99981.39;106242;1256;61494;-73
2023/07/15 09:02:39;;;;;;;4.60;1.40;;;;;;;29.60;36.87;99976.23;106598;1257;74471;-75
2023/07/15 09:05:09;;;;;;;4.00;1.40;;;;;;;29.75;36.78;99983.54;106706;1256;70404;-74
2023/07/15 09:07:51;;;;;;;2.70;1.20;;;;;;;29.87;36.96;99991.73;106099;1256;71186;-73
2023/07/15 09:10:18;;;;;;;3.40;1.40;;;;;;;29.98;36.78;99994.92;106878;1256;62281;-73
2023/07/15 09:12:51;;;;;;;3.30;1.40;;;;;;;30.08;36.38;99994.55;107090;1255;60930;-74
2023/07/15 09:15:18;;;;;;;3.50;1.30;;;;;;;30.17;35.90;99990.40;106871;1257;74758;-73
2023/07/15 09:17:57;;;;;;;3.30;1.40;;;;;;;30.22;36.06;99989.17;106286;1257;70606;-74
2023/07/15 09:20:25;;;;;;;2.60;1.30;;;;;;;30.42;36.55;99989.75;107126;1256;71269;-73
2023/07/15 09:22:58;;;;;;;3.70;1.40;;;;;;;30.64;35.77;99993.00;106747;1256;59227;-75
2023/07/15 09:25:25;;;;;;;2.30;1.30;;;;;;;30.84;35.33;99998.92;106518;1256;60732;-73
2023/07/15 09:27:53;;;;;;;3.30;1.40;;;;;;;31.03;35.39;100002.33;106535;1256;74752;-74
2023/07/15 09:30:20;;;;;;;4.10;1.40;;;;;;;31.25;35.29;100000.97;106633;1256;71232;-76
2023/07/15 09:32:47;;;;;;;4.20;1.30;;;;;;;31.47;34.56;100005.05;107268;1256;72694;-77
2023/07/15 09:35:17;;;;;;;3.20;1.40;;;;;;;31.65;33.98;100006.95;106389;1257;61465;-75
2023/07/15 09:37:48;;;;;;;3.20;1.40;;;;;;;31.88;34.60;100000.58;106524;1263;60467;-74
2023/07/15 09:40:15;;;;;;;2.50;1.40;;;;;;;32.17;33.92;100004.27;106640;1256;74713;-74
2023/07/15 09:42:55;;;;;;;2.90;1.30;;;;;;;32.48;34.20;99997.45;106578;1256;69987;-73
2023/07/15 09:45:33;;;;;;;4.50;1.30;;;;;;;32.69;33.34;100001.86;106452;1257;72668;-71
2023/07/15 09:48:01;;;;;;;3.90;1.30;;;;;;;32.71;33.02;99996.73;106582;1256;61356;-73
2023/07/15 09:50:28;;;;;;;3.00;1.30;;;;;;;32.63;32.44;100003.23;106350;1256;61338;-75
2023/07/15 09:52:58;;;;;;;2.50;1.20;;;;;;;32.55;32.40;100006.15;106947;1256;74096;-73
2023/07/15 09:55:25;;;;;;;2.20;1.10;;;;;;;32.48;32.21;100012.11;106431;1257;71238;-75
2023/07/15 09:58:00;;;;;;;3.00;1.20;;;;;;;32.53;32.33;100014.61;106474;1256;71502;-74
2023/07/15 10:00:31;;;;;;;3.30;1.20;;;;;;;32.63;32.22;100021.15;106297;1257;61270;-75
2023/07/15 10:03:03;;;;;;;3.10;1.30;;;;;;;32.69;32.63;100020.98;106293;1256;62655;-73
2023/07/15 10:05:31;;;;;;;2.90;1.20;;;;;;;32.74;32.48;100019.51;106179;1261;74820;-76
2023/07/15 10:07:59;;;;;;;2.80;1.50;;;;;;;32.75;32.66;100028.34;106900;1256;70856;-73
2023/07/15 10:10:26;;;;;;;3.60;1.30;;;;;;;32.79;32.95;100028.64;107339;1256;72770;-74
2023/07/15 10:12:53;;;;;;;3.30;1.30;;;;;;;32.82;33.00;100030.92;107594;1256;61505;-74
2023/07/15 10:15:20;;;;;;;2.40;1.20;;;;;;;32.96;32.79;100025.42;107391;1256;61259;-73
2023/07/15 10:17:48;;;;;;;2.70;1.20;;;;;;;33.00;32.85;100034.26;107758;1256;75996;-77
2023/07/15 10:20:14;;;;;;;3.00;1.30;;;;;;;32.94;32.98;100041.73;108023;1256;71141;-76
2023/07/15 10:22:45;;;;;;;2.90;1.20;;;;;;;32.78;33.15;100047.02;108805;1256;72487;-75
2023/07/15 10:25:15;;;;;;;3.60;1.30;;;;;;;32.59;33.39;100051.88;108019;1256;62553;-73
2023/07/15 10:27:42;;;;;;;3.80;1.40;;;;;;;32.46;33.97;100048.77;106882;1256;60063;-74
2023/07/15 10:30:25;;;;;;;2.10;1.30;;;;;;;32.41;34.08;100048.40;106489;1262;74626;-74
2023/07/15 10:33:00;;;;;;;3.10;1.20;;;;;;;32.30;34.10;100054.68;106164;1257;70944;-74
2023/07/15 10:35:32;;;;;;;2.50;1.30;;;;;;;32.18;34.13;100064.66;106444;1257;73216;-74
2023/07/15 10:38:23;;;;;;;3.60;1.10;;;;;;;31.94;34.51;100083.98;106267;1262;61644;-72
2023/07/15 10:40:51;;;;;;;2.20;1.20;;;;;;;31.64;35.20;100105.23;106265;1257;61263;-75
2023/07/15 10:43:33;;;;;;;3.50;1.40;;;;;;;31.36;35.74;100122.02;106288;1256;75125;-75
2023/07/15 10:46:07;;;;;;;4.90;1.40;;;;;;;31.04;36.13;100139.15;106303;1257;70113;-74
2023/07/15 10:48:34;;;;;;;3.80;1.30;;;;;;;30.74;36.69;100149.02;106786;1256;73217;-74
2023/07/15 10:51:04;;;;;;;3.10;1.20;;;;;;;30.53;37.26;100163.02;106169;1256;61378;-73
2023/07/15 10:53:30;;;;;;;3.70;1.20;;;;;;;30.27;37.90;100168.95;106356;1256;61251;-72
2023/07/15 10:56:05;;;;;;;4.70;1.30;;;;;;;30.01;38.46;100166.41;106196;1262;72882;-73
2023/07/15 10:58:34;;;;;;;4.00;1.30;;;;;;;29.80;39.26;100173.21;106454;1256;69962;-73
2023/07/15 11:01:05;;;;;;;4.00;1.20;;;;;;;29.61;40.10;100192.66;106311;1256;72524;-73
2023/07/15 11:03:36;;;;;;;3.10;1.40;;;;;;;29.28;41.24;100215.84;106124;1256;61267;-73
2023/07/15 11:06:03;;;;;;;3.10;1.30;;;;;;;29.01;42.82;100209.88;106802;1259;62137;-70
2023/07/15 11:08:32;;;;;;;3.20;1.20;;;;;;;28.71;42.95;100212.64;106379;1256;74573;-72
2023/07/15 11:11:12;;;;;;;2.40;1.20;;;;;;;28.47;43.22;100212.63;106434;1256;69439;-74
2023/07/15 11:13:41;;;;;;;3.80;1.40;;;;;;;28.30;43.70;100216.38;106144;1257;71425;-73
2023/07/15 11:16:08;;;;;;;2.70;1.00;;;;;;;28.17;44.21;100219.60;106492;1256;61712;-71
2023/07/15 11:18:35;;;;;;;2.70;1.10;;;;;;;28.01;44.77;100209.27;106084;1257;61311;-73
2023/07/15 11:21:02;;;;;;;1.90;1.00;;;;;;;27.92;45.90;100207.33;106311;1259;75022;-71
2023/07/15 11:23:30;;;;;;;2.10;1.00;;;;;;;27.75;46.10;100211.02;106168;1259;69570;-73
2023/07/15 11:25:58;;;;;;;2.10;1.10;;;;;;;27.63;46.72;100205.36;106594;1261;72761;-72
2023/07/15 11:28:26;;;;;;;2.10;1.10;;;;;;;27.50;47.13;100198.84;106379;1256;61286;-73